sensor_id;sensor_type;location;lat;lon;timestamp;temperature;humidity
1381;DHT22;684;48.342;10.096;2022-08-19T00:01:36;20.90;38.70
1381;DHT22;684;48.342;10.096;2022-08-19T00:04:05;20.90;38.70
1381;DHT22;684;48.342;10.096;2022-08-19T00:06:31;21.00;39.60
1381;DHT22;684;48.342;10.096;2022-08-19T00:09:00;21.10;38.80
1381;DHT22;684;48.342;10.096;2022-08-19T00:11:29;21.00;38.40
1381;DHT22;684;48.342;10.096;2022-08-19T00:13:56;21.00;38.30
1381;DHT22;684;48.342;10.096;2022-08-19T00:16:24;21.00;38.30
1381;DHT22;684;48.342;10.096;2022-08-19T00:18:51;20.90;38.20
1381;DHT22;684;48.342;10.096;2022-08-19T00:21:18;20.80;38.30
1381;DHT22;684;48.342;10.096;2022-08-19T00:23:45;20.80;38.40
1381;DHT22;684;48.342;10.096;2022-08-19T00:26:12;20.80;38.50
1381;DHT22;684;48.342;10.096;2022-08-19T00:28:40;20.70;38.70
1381;DHT22;684;48.342;10.096;2022-08-19T00:31:07;20.70;38.60
1381;DHT22;684;48.342;10.096;2022-08-19T00:33:35;20.70;38.80
1381;DHT22;684;48.342;10.096;2022-08-19T00:36:04;20.60;38.80
1381;DHT22;684;48.342;10.096;2022-08-19T00:38:32;20.60;38.80
1381;DHT22;684;48.342;10.096;2022-08-19T00:40:58;20.60;38.90
1381;DHT22;684;48.342;10.096;2022-08-19T00:43:27;20.50;39.10
1381;DHT22;684;48.342;10.096;2022-08-19T00:45:55;20.50;39.40
1381;DHT22;684;48.342;10.096;2022-08-19T00:48:22;20.50;39.50
1381;DHT22;684;48.342;10.096;2022-08-19T00:50:50;20.50;39.50
1381;DHT22;684;48.342;10.096;2022-08-19T00:53:21;20.50;39.30
1381;DHT22;684;48.342;10.096;2022-08-19T00:55:50;20.50;39.40
1381;DHT22;684;48.342;10.096;2022-08-19T00:58:21;20.40;39.50
1381;DHT22;684;48.342;10.096;2022-08-19T01:00:48;20.40;39.50
1381;DHT22;684;48.342;10.096;2022-08-19T01:03:18;20.40;39.50
1381;DHT22;684;48.342;10.096;2022-08-19T01:05:47;20.40;39.80
1381;DHT22;684;48.342;10.096;2022-08-19T01:08:16;20.40;40.00
1381;DHT22;684;48.342;10.096;2022-08-19T01:10:45;20.40;40.90
1381;DHT22;684;48.342;10.096;2022-08-19T01:13:14;20.40;40.20
1381;DHT22;684;48.342;10.096;2022-08-19T01:15:43;20.40;40.20
1381;DHT22;684;48.342;10.096;2022-08-19T01:18:12;20.40;40.20
1381;DHT22;684;48.342;10.096;2022-08-19T01:20:42;20.40;40.40
1381;DHT22;684;48.342;10.096;2022-08-19T01:23:12;20.40;40.60
1381;DHT22;684;48.342;10.096;2022-08-19T01:25:41;20.40;40.30
1381;DHT22;684;48.342;10.096;2022-08-19T01:28:15;20.40;40.10
1381;DHT22;684;48.342;10.096;2022-08-19T01:30:44;20.40;40.30
1381;DHT22;684;48.342;10.096;2022-08-19T01:33:11;20.40;40.20
1381;DHT22;684;48.342;10.096;2022-08-19T01:35:38;20.50;40.40
1381;DHT22;684;48.342;10.096;2022-08-19T01:38:08;20.50;40.00
1381;DHT22;684;48.342;10.096;2022-08-19T01:40:38;20.50;39.70
1381;DHT22;684;48.342;10.096;2022-08-19T01:43:07;20.50;39.80
1381;DHT22;684;48.342;10.096;2022-08-19T01:45:35;20.50;39.80
1381;DHT22;684;48.342;10.096;2022-08-19T01:48:03;20.50;39.90
1381;DHT22;684;48.342;10.096;2022-08-19T01:50:31;20.50;39.80
1381;DHT22;684;48.342;10.096;2022-08-19T01:52:58;20.50;40.10
1381;DHT22;684;48.342;10.096;2022-08-19T01:55:26;20.50;40.00
1381;DHT22;684;48.342;10.096;2022-08-19T01:57:55;20.50;39.90
1381;DHT22;684;48.342;10.096;2022-08-19T02:00:26;20.50;39.70
1381;DHT22;684;48.342;10.096;2022-08-19T02:02:53;20.50;39.60
1381;DHT22;684;48.342;10.096;2022-08-19T02:05:20;20.50;39.70
1381;DHT22;684;48.342;10.096;2022-08-19T02:07:47;20.50;39.60
1381;DHT22;684;48.342;10.096;2022-08-19T02:10:17;20.40;39.70
1381;DHT22;684;48.342;10.096;2022-08-19T02:12:44;20.40;39.80
1381;DHT22;684;48.342;10.096;2022-08-19T02:15:13;20.40;39.50
1381;DHT22;684;48.342;10.096;2022-08-19T02:17:40;20.40;39.60
1381;DHT22;684;48.342;10.096;2022-08-19T02:20:08;20.40;39.60
1381;DHT22;684;48.342;10.096;2022-08-19T02:22:35;20.40;39.50
1381;DHT22;684;48.342;10.096;2022-08-19T02:25:03;20.40;39.40
1381;DHT22;684;48.342;10.096;2022-08-19T02:27:30;20.40;39.40
1381;DHT22;684;48.342;10.096;2022-08-19T02:29:59;20.40;39.30
1381;DHT22;684;48.342;10.096;2022-08-19T02:32:27;20.40;39.20
1381;DHT22;684;48.342;10.096;2022-08-19T02:34:55;20.40;39.20
1381;DHT22;684;48.342;10.096;2022-08-19T02:37:22;20.40;39.10
1381;DHT22;684;48.342;10.096;2022-08-19T02:40:07;20.40;39.10
1381;DHT22;684;48.342;10.096;2022-08-19T02:42:34;20.40;39.10
1381;DHT22;684;48.342;10.096;2022-08-19T02:45:01;20.40;39.00
1381;DHT22;684;48.342;10.096;2022-08-19T02:47:30;20.40;38.90
1381;DHT22;684;48.342;10.096;2022-08-19T02:49:56;20.30;39.10
1381;DHT22;684;48.342;10.096;2022-08-19T02:52:23;20.30;39.10
1381;DHT22;684;48.342;10.096;2022-08-19T02:54:50;20.30;39.10
1381;DHT22;684;48.342;10.096;2022-08-19T02:57:17;20.30;39.20
1381;DHT22;684;48.342;10.096;2022-08-19T02:59:44;20.30;39.30
1381;DHT22;684;48.342;10.096;2022-08-19T03:02:11;20.30;39.40
1381;DHT22;684;48.342;10.096;2022-08-19T03:04:39;20.30;39.20
1381;DHT22;684;48.342;10.096;2022-08-19T03:07:06;20.30;39.30
1381;DHT22;684;48.342;10.096;2022-08-19T03:09:36;20.40;39.20
1381;DHT22;684;48.342;10.096;2022-08-19T03:12:03;20.40;39.10
1381;DHT22;684;48.342;10.096;2022-08-19T03:14:31;20.40;39.00
1381;DHT22;684;48.342;10.096;2022-08-19T03:16:58;20.40;38.80
1381;DHT22;684;48.342;10.096;2022-08-19T03:19:24;20.40;39.00
1381;DHT22;684;48.342;10.096;2022-08-19T03:21:53;20.40;39.20
1381;DHT22;684;48.342;10.096;2022-08-19T03:24:21;20.30;39.30
1381;DHT22;684;48.342;10.096;2022-08-19T03:26:49;20.30;39.20
1381;DHT22;684;48.342;10.096;2022-08-19T03:29:17;20.30;39.10
1381;DHT22;684;48.342;10.096;2022-08-19T03:31:45;20.30;39.20
1381;DHT22;684;48.342;10.096;2022-08-19T03:34:13;20.20;39.30
1381;DHT22;684;48.342;10.096;2022-08-19T03:36:41;20.20;39.30
1381;DHT22;684;48.342;10.096;2022-08-19T03:39:10;20.20;39.30
1381;DHT22;684;48.342;10.096;2022-08-19T03:41:39;20.20;39.20
1381;DHT22;684;48.342;10.096;2022-08-19T03:44:07;20.20;39.40
1381;DHT22;684;48.342;10.096;2022-08-19T03:46:35;20.10;39.30
1381;DHT22;684;48.342;10.096;2022-08-19T03:49:03;20.10;39.40
1381;DHT22;684;48.342;10.096;2022-08-19T03:51:34;20.20;39.60
1381;DHT22;684;48.342;10.096;2022-08-19T03:54:03;20.20;39.30
1381;DHT22;684;48.342;10.096;2022-08-19T03:56:33;20.10;39.50
1381;DHT22;684;48.342;10.096;2022-08-19T03:59:01;20.10;39.70
1381;DHT22;684;48.342;10.096;2022-08-19T04:01:28;20.10;39.80
1381;DHT22;684;48.342;10.096;2022-08-19T04:03:56;20.10;39.60
1381;DHT22;684;48.342;10.096;2022-08-19T04:06:25;20.20;39.50
1381;DHT22;684;48.342;10.096;2022-08-19T04:08:54;20.20;39.70
1381;DHT22;684;48.342;10.096;2022-08-19T04:11:23;20.20;39.60
1381;DHT22;684;48.342;10.096;2022-08-19T04:13:53;20.30;39.80
1381;DHT22;684;48.342;10.096;2022-08-19T04:16:21;20.30;39.50
1381;DHT22;684;48.342;10.096;2022-08-19T04:18:49;20.20;39.50
1381;DHT22;684;48.342;10.096;2022-08-19T04:21:17;20.10;39.50
1381;DHT22;684;48.342;10.096;2022-08-19T04:23:45;20.10;39.80
1381;DHT22;684;48.342;10.096;2022-08-19T04:26:13;20.10;39.70
1381;DHT22;684;48.342;10.096;2022-08-19T04:28:41;20.00;39.90
1381;DHT22;684;48.342;10.096;2022-08-19T04:31:13;20.00;39.80
1381;DHT22;684;48.342;10.096;2022-08-19T04:33:40;20.00;40.00
1381;DHT22;684;48.342;10.096;2022-08-19T04:36:07;20.00;40.00
1381;DHT22;684;48.342;10.096;2022-08-19T04:38:35;19.90;40.00
1381;DHT22;684;48.342;10.096;2022-08-19T04:41:03;19.90;40.20
1381;DHT22;684;48.342;10.096;2022-08-19T04:43:47;20.00;40.20
1381;DHT22;684;48.342;10.096;2022-08-19T04:46:17;19.90;40.20
1381;DHT22;684;48.342;10.096;2022-08-19T04:48:45;19.90;40.50
1381;DHT22;684;48.342;10.096;2022-08-19T04:51:12;19.90;40.80
1381;DHT22;684;48.342;10.096;2022-08-19T04:53:41;19.90;40.80
1381;DHT22;684;48.342;10.096;2022-08-19T04:56:09;19.90;40.80
1381;DHT22;684;48.342;10.096;2022-08-19T04:58:38;19.90;40.80
1381;DHT22;684;48.342;10.096;2022-08-19T05:01:05;19.90;40.60
1381;DHT22;684;48.342;10.096;2022-08-19T05:03:33;19.90;40.70
1381;DHT22;684;48.342;10.096;2022-08-19T05:06:04;19.90;40.70
1381;DHT22;684;48.342;10.096;2022-08-19T05:08:33;20.00;40.60
1381;DHT22;684;48.342;10.096;2022-08-19T05:11:01;20.00;41.00
1381;DHT22;684;48.342;10.096;2022-08-19T05:13:33;19.90;41.20
1381;DHT22;684;48.342;10.096;2022-08-19T05:16:00;20.00;41.00
1381;DHT22;684;48.342;10.096;2022-08-19T05:18:26;20.00;41.10
1381;DHT22;684;48.342;10.096;2022-08-19T05:21:14;19.90;40.90
1381;DHT22;684;48.342;10.096;2022-08-19T05:23:58;19.90;40.80
1381;DHT22;684;48.342;10.096;2022-08-19T05:26:26;19.90;40.60
1381;DHT22;684;48.342;10.096;2022-08-19T05:28:53;19.90;40.70
1381;DHT22;684;48.342;10.096;2022-08-19T05:31:20;20.00;40.60
1381;DHT22;684;48.342;10.096;2022-08-19T05:33:47;20.00;40.80
1381;DHT22;684;48.342;10.096;2022-08-19T05:36:16;20.00;40.70
1381;DHT22;684;48.342;10.096;2022-08-19T05:38:44;20.00;41.10
1381;DHT22;684;48.342;10.096;2022-08-19T05:41:12;20.00;41.10
1381;DHT22;684;48.342;10.096;2022-08-19T05:43:39;20.00;41.30
1381;DHT22;684;48.342;10.096;2022-08-19T05:46:06;20.00;41.50
1381;DHT22;684;48.342;10.096;2022-08-19T05:48:34;20.00;41.30
1381;DHT22;684;48.342;10.096;2022-08-19T05:51:04;20.10;41.10
1381;DHT22;684;48.342;10.096;2022-08-19T05:53:33;20.20;40.80
1381;DHT22;684;48.342;10.096;2022-08-19T05:56:04;20.30;40.40
1381;DHT22;684;48.342;10.096;2022-08-19T05:58:30;20.30;40.20
1381;DHT22;684;48.342;10.096;2022-08-19T06:00:58;20.30;40.00
1381;DHT22;684;48.342;10.096;2022-08-19T06:03:29;20.30;39.80
1381;DHT22;684;48.342;10.096;2022-08-19T06:05:56;20.30;39.90
1381;DHT22;684;48.342;10.096;2022-08-19T06:08:24;20.30;39.90
1381;DHT22;684;48.342;10.096;2022-08-19T06:10:54;20.30;39.70
1381;DHT22;684;48.342;10.096;2022-08-19T06:13:21;20.30;39.80
1381;DHT22;684;48.342;10.096;2022-08-19T06:15:49;20.30;39.80
1381;DHT22;684;48.342;10.096;2022-08-19T06:18:16;20.30;39.60
1381;DHT22;684;48.342;10.096;2022-08-19T06:20:43;20.30;39.50
1381;DHT22;684;48.342;10.096;2022-08-19T06:23:09;20.30;40.20
1381;DHT22;684;48.342;10.096;2022-08-19T06:25:39;20.30;39.80
1381;DHT22;684;48.342;10.096;2022-08-19T06:28:07;20.30;39.90
1381;DHT22;684;48.342;10.096;2022-08-19T06:30:35;20.30;39.60
1381;DHT22;684;48.342;10.096;2022-08-19T06:33:02;20.30;39.60
1381;DHT22;684;48.342;10.096;2022-08-19T06:35:31;20.30;39.90
1381;DHT22;684;48.342;10.096;2022-08-19T06:37:57;20.20;39.70
1381;DHT22;684;48.342;10.096;2022-08-19T06:40:24;20.30;39.90
1381;DHT22;684;48.342;10.096;2022-08-19T06:42:52;20.30;39.80
1381;DHT22;684;48.342;10.096;2022-08-19T06:45:21;20.30;39.60
1381;DHT22;684;48.342;10.096;2022-08-19T06:47:48;20.40;39.50
1381;DHT22;684;48.342;10.096;2022-08-19T06:50:14;20.40;39.20
1381;DHT22;684;48.342;10.096;2022-08-19T06:52:41;20.50;39.30
1381;DHT22;684;48.342;10.096;2022-08-19T06:55:08;20.50;38.90
1381;DHT22;684;48.342;10.096;2022-08-19T06:57:35;20.60;38.80
1381;DHT22;684;48.342;10.096;2022-08-19T07:00:04;20.60;38.60
1381;DHT22;684;48.342;10.096;2022-08-19T07:02:37;20.60;38.50
1381;DHT22;684;48.342;10.096;2022-08-19T07:05:05;20.70;38.30
1381;DHT22;684;48.342;10.096;2022-08-19T07:07:32;20.70;38.10
1381;DHT22;684;48.342;10.096;2022-08-19T07:09:59;20.70;38.10
1381;DHT22;684;48.342;10.096;2022-08-19T07:12:26;20.70;38.20
1381;DHT22;684;48.342;10.096;2022-08-19T07:14:54;20.70;38.50
1381;DHT22;684;48.342;10.096;2022-08-19T07:17:20;20.60;38.30
1381;DHT22;684;48.342;10.096;2022-08-19T07:19:48;20.70;38.50
1381;DHT22;684;48.342;10.096;2022-08-19T07:22:17;20.70;38.30
1381;DHT22;684;48.342;10.096;2022-08-19T07:24:46;20.70;38.20
1381;DHT22;684;48.342;10.096;2022-08-19T07:27:13;20.70;38.50
1381;DHT22;684;48.342;10.096;2022-08-19T07:29:40;21.00;38.10
1381;DHT22;684;48.342;10.096;2022-08-19T07:32:07;21.20;38.10
1381;DHT22;684;48.342;10.096;2022-08-19T07:34:34;21.50;37.60
1381;DHT22;684;48.342;10.096;2022-08-19T07:37:04;21.80;37.20
1381;DHT22;684;48.342;10.096;2022-08-19T07:39:33;21.90;37.00
1381;DHT22;684;48.342;10.096;2022-08-19T07:42:05;22.00;36.60
1381;DHT22;684;48.342;10.096;2022-08-19T07:44:32;22.00;36.00
1381;DHT22;684;48.342;10.096;2022-08-19T07:46:59;22.00;35.60
1381;DHT22;684;48.342;10.096;2022-08-19T07:49:27;22.10;35.70
1381;DHT22;684;48.342;10.096;2022-08-19T07:51:57;22.10;35.30
1381;DHT22;684;48.342;10.096;2022-08-19T07:54:27;22.10;35.10
1381;DHT22;684;48.342;10.096;2022-08-19T07:56:55;22.10;35.00
1381;DHT22;684;48.342;10.096;2022-08-19T07:59:24;22.20;34.50
1381;DHT22;684;48.342;10.096;2022-08-19T08:01:51;22.40;34.40
1381;DHT22;684;48.342;10.096;2022-08-19T08:04:19;22.40;34.10
1381;DHT22;684;48.342;10.096;2022-08-19T08:07:04;22.40;34.30
1381;DHT22;684;48.342;10.096;2022-08-19T08:09:50;22.30;34.40
1381;DHT22;684;48.342;10.096;2022-08-19T08:12:19;22.20;34.30
1381;DHT22;684;48.342;10.096;2022-08-19T08:14:50;22.20;34.40
1381;DHT22;684;48.342;10.096;2022-08-19T08:17:21;22.20;34.40
1381;DHT22;684;48.342;10.096;2022-08-19T08:19:48;22.20;34.50
1381;DHT22;684;48.342;10.096;2022-08-19T08:22:18;22.10;34.20
1381;DHT22;684;48.342;10.096;2022-08-19T08:25:03;22.10;34.30
1381;DHT22;684;48.342;10.096;2022-08-19T08:27:30;22.10;34.20
1381;DHT22;684;48.342;10.096;2022-08-19T08:29:57;22.20;34.00
1381;DHT22;684;48.342;10.096;2022-08-19T08:32:24;22.20;33.90
1381;DHT22;684;48.342;10.096;2022-08-19T08:34:52;22.00;34.10
1381;DHT22;684;48.342;10.096;2022-08-19T08:37:19;21.90;34.30
1381;DHT22;684;48.342;10.096;2022-08-19T08:39:47;21.90;34.40
1381;DHT22;684;48.342;10.096;2022-08-19T08:42:21;21.90;34.50
1381;DHT22;684;48.342;10.096;2022-08-19T08:44:55;21.80;34.40
1381;DHT22;684;48.342;10.096;2022-08-19T08:47:25;21.80;34.60
1381;DHT22;684;48.342;10.096;2022-08-19T08:49:55;21.70;34.70
1381;DHT22;684;48.342;10.096;2022-08-19T08:52:27;21.60;34.70
1381;DHT22;684;48.342;10.096;2022-08-19T08:54:57;21.50;35.00
1381;DHT22;684;48.342;10.096;2022-08-19T08:57:28;21.50;35.00
1381;DHT22;684;48.342;10.096;2022-08-19T08:59:57;21.40;35.00
1381;DHT22;684;48.342;10.096;2022-08-19T09:02:27;21.30;35.10
1381;DHT22;684;48.342;10.096;2022-08-19T09:04:54;21.20;35.30
1381;DHT22;684;48.342;10.096;2022-08-19T09:07:31;21.20;35.50
1381;DHT22;684;48.342;10.096;2022-08-19T09:10:05;21.10;35.80
1381;DHT22;684;48.342;10.096;2022-08-19T09:12:40;21.10;35.70
1381;DHT22;684;48.342;10.096;2022-08-19T09:15:11;21.00;36.20
1381;DHT22;684;48.342;10.096;2022-08-19T09:17:38;21.00;36.20
1381;DHT22;684;48.342;10.096;2022-08-19T09:20:12;20.90;36.30
1381;DHT22;684;48.342;10.096;2022-08-19T09:22:41;20.90;36.60
1381;DHT22;684;48.342;10.096;2022-08-19T09:25:11;20.90;37.00
1381;DHT22;684;48.342;10.096;2022-08-19T09:27:40;20.80;37.10
1381;DHT22;684;48.342;10.096;2022-08-19T09:30:10;20.70;37.20
1381;DHT22;684;48.342;10.096;2022-08-19T09:32:38;20.70;37.30
1381;DHT22;684;48.342;10.096;2022-08-19T09:35:08;20.70;37.40
1381;DHT22;684;48.342;10.096;2022-08-19T09:37:34;20.70;37.50
1381;DHT22;684;48.342;10.096;2022-08-19T09:40:02;20.70;37.80
1381;DHT22;684;48.342;10.096;2022-08-19T09:42:29;20.60;38.10
1381;DHT22;684;48.342;10.096;2022-08-19T09:44:57;20.60;37.80
1381;DHT22;684;48.342;10.096;2022-08-19T09:47:24;20.60;38.00
1381;DHT22;684;48.342;10.096;2022-08-19T09:49:50;20.60;38.10
1381;DHT22;684;48.342;10.096;2022-08-19T09:52:17;20.60;38.30
1381;DHT22;684;48.342;10.096;2022-08-19T09:54:44;20.50;38.30
1381;DHT22;684;48.342;10.096;2022-08-19T09:57:11;20.50;38.80
1381;DHT22;684;48.342;10.096;2022-08-19T09:59:39;20.50;39.00
1381;DHT22;684;48.342;10.096;2022-08-19T10:02:07;20.50;39.40
1381;DHT22;684;48.342;10.096;2022-08-19T10:04:35;20.40;39.60
1381;DHT22;684;48.342;10.096;2022-08-19T10:07:19;20.50;39.50
1381;DHT22;684;48.342;10.096;2022-08-19T10:09:46;20.50;39.70
1381;DHT22;684;48.342;10.096;2022-08-19T10:12:13;20.50;39.70
1381;DHT22;684;48.342;10.096;2022-08-19T10:14:40;20.50;40.10
1381;DHT22;684;48.342;10.096;2022-08-19T10:17:08;20.60;40.00
1381;DHT22;684;48.342;10.096;2022-08-19T10:19:35;20.60;40.20
1381;DHT22;684;48.342;10.096;2022-08-19T10:22:03;20.60;40.30
1381;DHT22;684;48.342;10.096;2022-08-19T10:24:30;20.60;40.00
1381;DHT22;684;48.342;10.096;2022-08-19T10:26:59;20.60;39.90
1381;DHT22;684;48.342;10.096;2022-08-19T10:29:28;20.60;39.80
1381;DHT22;684;48.342;10.096;2022-08-19T10:31:55;20.60;39.70
1381;DHT22;684;48.342;10.096;2022-08-19T10:34:25;20.60;39.90
1381;DHT22;684;48.342;10.096;2022-08-19T10:36:52;20.60;40.10
1381;DHT22;684;48.342;10.096;2022-08-19T10:39:18;20.60;40.40
1381;DHT22;684;48.342;10.096;2022-08-19T10:41:45;20.50;40.20
1381;DHT22;684;48.342;10.096;2022-08-19T10:44:14;20.50;40.00
1381;DHT22;684;48.342;10.096;2022-08-19T10:46:43;20.50;39.80
1381;DHT22;684;48.342;10.096;2022-08-19T10:49:12;20.50;39.90
1381;DHT22;684;48.342;10.096;2022-08-19T10:51:41;20.40;40.60
1381;DHT22;684;48.342;10.096;2022-08-19T10:54:40;20.50;40.50
1381;DHT22;684;48.342;10.096;2022-08-19T10:57:24;20.50;40.50
1381;DHT22;684;48.342;10.096;2022-08-19T10:59:54;20.40;41.10
1381;DHT22;684;48.342;10.096;2022-08-19T11:02:22;20.50;40.40
1381;DHT22;684;48.342;10.096;2022-08-19T11:04:48;20.50;40.20
1381;DHT22;684;48.342;10.096;2022-08-19T11:07:18;20.40;40.30
1381;DHT22;684;48.342;10.096;2022-08-19T11:09:46;20.40;40.40
1381;DHT22;684;48.342;10.096;2022-08-19T11:12:13;20.40;40.30
1381;DHT22;684;48.342;10.096;2022-08-19T11:14:42;20.40;40.40
1381;DHT22;684;48.342;10.096;2022-08-19T11:17:09;20.40;40.40
1381;DHT22;684;48.342;10.096;2022-08-19T11:19:38;20.40;40.50
1381;DHT22;684;48.342;10.096;2022-08-19T11:22:07;20.40;40.50
1381;DHT22;684;48.342;10.096;2022-08-19T11:24:36;20.40;40.80
1381;DHT22;684;48.342;10.096;2022-08-19T11:27:06;20.40;40.90
1381;DHT22;684;48.342;10.096;2022-08-19T11:29:35;20.40;41.20
1381;DHT22;684;48.342;10.096;2022-08-19T11:32:06;20.40;41.20
1381;DHT22;684;48.342;10.096;2022-08-19T11:34:34;20.40;41.20
1381;DHT22;684;48.342;10.096;2022-08-19T11:37:01;20.50;41.10
1381;DHT22;684;48.342;10.096;2022-08-19T11:39:30;20.50;41.00
1381;DHT22;684;48.342;10.096;2022-08-19T11:42:00;20.50;40.80
1381;DHT22;684;48.342;10.096;2022-08-19T11:44:28;20.40;40.80
1381;DHT22;684;48.342;10.096;2022-08-19T11:46:57;20.40;41.10
1381;DHT22;684;48.342;10.096;2022-08-19T11:49:25;20.40;40.40
1381;DHT22;684;48.342;10.096;2022-08-19T11:51:52;20.40;40.80
1381;DHT22;684;48.342;10.096;2022-08-19T11:54:19;20.40;41.00
1381;DHT22;684;48.342;10.096;2022-08-19T11:56:47;20.40;41.10
1381;DHT22;684;48.342;10.096;2022-08-19T11:59:15;20.30;40.90
1381;DHT22;684;48.342;10.096;2022-08-19T12:01:42;20.30;41.00
1381;DHT22;684;48.342;10.096;2022-08-19T12:04:10;20.40;41.00
1381;DHT22;684;48.342;10.096;2022-08-19T12:06:38;20.40;40.90
1381;DHT22;684;48.342;10.096;2022-08-19T12:09:07;20.40;40.90
1381;DHT22;684;48.342;10.096;2022-08-19T12:11:35;20.40;40.80
1381;DHT22;684;48.342;10.096;2022-08-19T12:14:03;20.50;40.70
1381;DHT22;684;48.342;10.096;2022-08-19T12:16:32;20.50;40.80
1381;DHT22;684;48.342;10.096;2022-08-19T12:18:59;20.50;40.80
1381;DHT22;684;48.342;10.096;2022-08-19T12:21:30;20.50;40.60
1381;DHT22;684;48.342;10.096;2022-08-19T12:23:58;20.50;40.50
1381;DHT22;684;48.342;10.096;2022-08-19T12:26:26;20.60;40.30
1381;DHT22;684;48.342;10.096;2022-08-19T12:28:54;20.50;40.00
1381;DHT22;684;48.342;10.096;2022-08-19T12:31:21;20.60;40.10
1381;DHT22;684;48.342;10.096;2022-08-19T12:33:49;20.50;40.10
1381;DHT22;684;48.342;10.096;2022-08-19T12:36:17;20.50;40.20
1381;DHT22;684;48.342;10.096;2022-08-19T12:38:45;20.60;40.30
1381;DHT22;684;48.342;10.096;2022-08-19T12:41:14;20.60;40.30
1381;DHT22;684;48.342;10.096;2022-08-19T12:43:43;20.60;40.10
1381;DHT22;684;48.342;10.096;2022-08-19T12:46:10;20.60;40.10
1381;DHT22;684;48.342;10.096;2022-08-19T12:48:38;20.50;39.90
1381;DHT22;684;48.342;10.096;2022-08-19T12:51:10;20.50;39.80
1381;DHT22;684;48.342;10.096;2022-08-19T12:53:38;20.60;39.90
1381;DHT22;684;48.342;10.096;2022-08-19T12:56:05;20.60;39.90
1381;DHT22;684;48.342;10.096;2022-08-19T12:58:32;20.50;40.10
1381;DHT22;684;48.342;10.096;2022-08-19T13:01:00;20.50;40.20
1381;DHT22;684;48.342;10.096;2022-08-19T13:03:31;20.40;40.50
1381;DHT22;684;48.342;10.096;2022-08-19T13:05:58;20.40;40.40
1381;DHT22;684;48.342;10.096;2022-08-19T13:08:26;20.40;40.60
1381;DHT22;684;48.342;10.096;2022-08-19T13:10:53;20.40;40.70
1381;DHT22;684;48.342;10.096;2022-08-19T13:13:21;20.40;40.90
1381;DHT22;684;48.342;10.096;2022-08-19T13:15:48;20.50;41.20
1381;DHT22;684;48.342;10.096;2022-08-19T13:18:14;20.50;41.30
1381;DHT22;684;48.342;10.096;2022-08-19T13:20:41;20.50;41.20
1381;DHT22;684;48.342;10.096;2022-08-19T13:23:08;20.50;40.90
1381;DHT22;684;48.342;10.096;2022-08-19T13:25:37;20.40;41.00
1381;DHT22;684;48.342;10.096;2022-08-19T13:28:04;20.40;40.90
1381;DHT22;684;48.342;10.096;2022-08-19T13:30:32;20.40;41.00
1381;DHT22;684;48.342;10.096;2022-08-19T13:33:17;20.40;41.10
1381;DHT22;684;48.342;10.096;2022-08-19T13:35:47;20.40;40.90
1381;DHT22;684;48.342;10.096;2022-08-19T13:38:15;20.40;40.90
1381;DHT22;684;48.342;10.096;2022-08-19T13:40:44;20.40;41.10
1381;DHT22;684;48.342;10.096;2022-08-19T13:43:12;20.40;41.20
1381;DHT22;684;48.342;10.096;2022-08-19T13:45:39;20.40;41.30
1381;DHT22;684;48.342;10.096;2022-08-19T13:48:07;20.40;41.30
1381;DHT22;684;48.342;10.096;2022-08-19T13:50:38;20.40;41.50
1381;DHT22;684;48.342;10.096;2022-08-19T13:53:06;20.40;41.70
1381;DHT22;684;48.342;10.096;2022-08-19T13:55:33;20.40;41.80
1381;DHT22;684;48.342;10.096;2022-08-19T13:58:02;20.40;42.00
1381;DHT22;684;48.342;10.096;2022-08-19T14:00:32;20.50;42.60
1381;DHT22;684;48.342;10.096;2022-08-19T14:03:00;20.50;42.30
1381;DHT22;684;48.342;10.096;2022-08-19T14:05:28;20.50;41.90
1381;DHT22;684;48.342;10.096;2022-08-19T14:07:56;20.50;41.40
1381;DHT22;684;48.342;10.096;2022-08-19T14:10:24;20.40;41.70
1381;DHT22;684;48.342;10.096;2022-08-19T14:12:53;20.40;41.60
1381;DHT22;684;48.342;10.096;2022-08-19T14:15:22;20.40;41.60
1381;DHT22;684;48.342;10.096;2022-08-19T14:17:50;20.40;41.70
1381;DHT22;684;48.342;10.096;2022-08-19T14:20:17;20.40;41.40
1381;DHT22;684;48.342;10.096;2022-08-19T14:22:46;20.30;41.70
1381;DHT22;684;48.342;10.096;2022-08-19T14:25:15;20.30;41.50
1381;DHT22;684;48.342;10.096;2022-08-19T14:27:42;20.30;41.70
1381;DHT22;684;48.342;10.096;2022-08-19T14:30:12;20.30;41.90
1381;DHT22;684;48.342;10.096;2022-08-19T14:32:41;20.30;41.90
1381;DHT22;684;48.342;10.096;2022-08-19T14:35:09;20.30;41.90
1381;DHT22;684;48.342;10.096;2022-08-19T14:37:35;20.30;42.20
1381;DHT22;684;48.342;10.096;2022-08-19T14:40:03;20.40;42.00
1381;DHT22;684;48.342;10.096;2022-08-19T14:42:30;20.40;42.20
1381;DHT22;684;48.342;10.096;2022-08-19T14:44:57;20.40;42.50
1381;DHT22;684;48.342;10.096;2022-08-19T14:47:25;20.30;42.60
1381;DHT22;684;48.342;10.096;2022-08-19T14:49:53;20.30;42.70
1381;DHT22;684;48.342;10.096;2022-08-19T14:52:20;20.30;42.80
1381;DHT22;684;48.342;10.096;2022-08-19T14:54:47;20.30;42.80
1381;DHT22;684;48.342;10.096;2022-08-19T14:57:15;20.30;43.00
1381;DHT22;684;48.342;10.096;2022-08-19T14:59:42;20.30;43.00
1381;DHT22;684;48.342;10.096;2022-08-19T15:02:10;20.30;42.80
1381;DHT22;684;48.342;10.096;2022-08-19T15:04:37;20.30;43.00
1381;DHT22;684;48.342;10.096;2022-08-19T15:07:06;20.30;42.80
1381;DHT22;684;48.342;10.096;2022-08-19T15:09:33;20.30;43.10
1381;DHT22;684;48.342;10.096;2022-08-19T15:12:00;20.30;43.20
1381;DHT22;684;48.342;10.096;2022-08-19T15:14:28;20.30;43.10
1381;DHT22;684;48.342;10.096;2022-08-19T15:17:00;20.30;43.00
1381;DHT22;684;48.342;10.096;2022-08-19T15:19:29;20.30;43.30
1381;DHT22;684;48.342;10.096;2022-08-19T15:21:56;20.30;43.30
1381;DHT22;684;48.342;10.096;2022-08-19T15:24:25;20.20;43.00
1381;DHT22;684;48.342;10.096;2022-08-19T15:26:52;20.20;42.90
1381;DHT22;684;48.342;10.096;2022-08-19T15:29:21;20.20;43.10
1381;DHT22;684;48.342;10.096;2022-08-19T15:31:50;20.20;43.80
1381;DHT22;684;48.342;10.096;2022-08-19T15:34:17;20.20;43.10
1381;DHT22;684;48.342;10.096;2022-08-19T15:36:44;20.20;43.20
1381;DHT22;684;48.342;10.096;2022-08-19T15:39:11;20.20;42.90
1381;DHT22;684;48.342;10.096;2022-08-19T15:41:41;20.20;42.90
1381;DHT22;684;48.342;10.096;2022-08-19T15:44:10;20.20;42.70
1381;DHT22;684;48.342;10.096;2022-08-19T15:46:39;20.20;42.60
1381;DHT22;684;48.342;10.096;2022-08-19T15:49:07;20.20;42.60
1381;DHT22;684;48.342;10.096;2022-08-19T15:51:36;20.20;42.50
1381;DHT22;684;48.342;10.096;2022-08-19T15:54:05;20.20;42.60
1381;DHT22;684;48.342;10.096;2022-08-19T15:56:33;20.20;42.70
1381;DHT22;684;48.342;10.096;2022-08-19T15:59:34;20.20;42.60
1381;DHT22;684;48.342;10.096;2022-08-19T16:02:21;20.20;42.40
1381;DHT22;684;48.342;10.096;2022-08-19T16:05:08;20.20;42.60
1381;DHT22;684;48.342;10.096;2022-08-19T16:07:53;20.10;42.60
1381;DHT22;684;48.342;10.096;2022-08-19T16:10:20;20.20;42.80
1381;DHT22;684;48.342;10.096;2022-08-19T16:12:47;20.20;42.90